Curtis, MI (49820)

7:48 AM EST on December 26, 2014 (GMT -0500)
RAWS SENEY MI US | Change Station
CLOSE
Current Station
Personal Weather Station
Location: Germfask, MI
Elevation: 899 ft
Nearby Weather Stations

Elev 899 ft 46.24 °N, 85.94 °W | Updated 45 minutes ago

Overcast
Overcast
31 °F
Feels Like 31 °F
N
0
Wind Variable Wind from North
Gusts 2.0 mph

Today
High -- | Low -- °F
--% Chance of Precip.
Yesterday
High -- | Low -- °F
Precip. -- in
8:25 AM 5:02 PM
Waxing Crescent, 25% visible
Pressure 29.95 in
Visibility 0.8 miles
Clouds Overcast 200 ft
Windchill 31 °F
Dew Point 30 °F
Humidity 97%
Rainfall 0.00 in
Snow Depth Not available.
UV 0 out of 12
Pollen .10 out of 12
Air Quality Not available.
Flu Activity Not available.
METAR KERY 261235Z AUTO 34005KT 3/4SM BR OVC002 M01/M01 A2995 RMK AO2 T10081008

More Conditions Fewer Conditions

Pressure 29.95 in
Visibility 0.8 miles
Clouds Overcast 200 ft
Windchill 31 °F
Dew Point 30 °F
Humidity 97%
Rainfall 0.00 in
Snow Depth Not available.
UV 0 out of 12
Pollen .10 out of 12
Air Quality Not available.
Flu Activity Not available.
METAR KERY 261235Z AUTO 34005KT 3/4SM BR OVC002 M01/M01 A2995 RMK AO2 T10081008

More Conditions Fewer Conditions

Nowcast | as of 7:00 am EST on December 26, 2014

At 8 am...cloudy. Slight chance of drizzle or snow. Temperature 34. South winds 6 mph. At 10 am...cloudy. Slight chance of drizzle or snow. Temperature 34. South winds 6 mph. At 12 PM...cloudy. Chance of drizzle or snow. Temperature 35. Southwest winds 6 mph. At 2 PM...cloudy. Chance of drizzle or snow. Temperature 36. Southwest winds 5 mph.

×

10-Day Weather Forecast

Almanac

Astronomy

Dec. 26, 2014 Rise Set
Actual Time
Civil Twilight
Nautical Twilight
Astronomical Twilight
Moon
Length of Visible Light
Length of Day
Tomorrow will be .
, % of the Moon is Illuminated

Today's Extremes

State Highs State Lows

Community

WunderPhotos

Upload Photos

1,780,588 photos uploaded!

WunderBlogs® & News

Nearby

Air Quality

  Air Quality AQ Index Pollutant
Not available.

Snow Depth

Station Depth Elevation

Earthquake Activity

City Distance Mag. Time & Date
Minimum magnitude displayed is 2.5.

Coastal Water Temperatures

Place Temperature

Nearby Weather Stations